Time;durP1;ratioP1;P1;durP2;ratioP2;P2;SDS_P1;SDS_P2;PMS_P1;PMS_P2;Temp;Humidity;BMP_temperature;BMP_pressure;BME280_temperature;BME280_humidity;BME280_pressure;Samples;Min_cycle;Max_cycle;Signal;HPM_P1;HPM_P2
2022/07/04 00:00:23;;;;;;;8.13;4.90;;;;;;;;;;5076015;28;20039;-64
2022/07/04 00:02:49;;;;;;;5.60;4.97;;;;;;;;;;5074205;28;20178;-64
2022/07/04 00:05:15;;;;;;;6.53;5.25;;;;;;;;;;5062394;28;20036;-64
2022/07/04 00:07:43;;;;;;;5.95;4.75;;;;;;;;;;5067493;28;20044;-64
2022/07/04 00:10:10;;;;;;;6.45;5.85;;;;;;;;;;5071249;28;20032;-64
2022/07/04 00:12:36;;;;;;;6.68;5.32;;;;;;;;;;5063643;28;20790;-64
2022/07/04 00:15:03;;;;;;;5.72;4.95;;;;;;;;;;5061172;28;20037;-64
2022/07/04 00:17:29;;;;;;;5.75;5.03;;;;;;;;;;5057585;28;20047;-64
2022/07/04 00:19:55;;;;;;;8.88;5.90;;;;;;;;;;5071513;28;20123;-64
2022/07/04 00:22:21;;;;;;;5.72;5.13;;;;;;;;;;5071457;28;20044;-64
2022/07/04 00:24:47;;;;;;;5.82;5.22;;;;;;;;;;5065103;28;20398;-64
2022/07/04 00:27:13;;;;;;;7.93;5.13;;;;;;;;;;5068542;28;20048;-64
2022/07/04 00:29:39;;;;;;;7.00;5.22;;;;;;;;;;5067171;28;20037;-64
2022/07/04 00:32:05;;;;;;;8.48;5.75;;;;;;;;;;5069213;28;20111;-64
2022/07/04 00:34:32;;;;;;;5.68;5.13;;;;;;;;;;5081148;28;20405;-64
2022/07/04 00:36:58;;;;;;;7.10;5.28;;;;;;;;;;5061511;28;20037;-64
2022/07/04 00:39:24;;;;;;;9.75;5.68;;;;;;;;;;5082058;28;20032;-64
2022/07/04 00:41:50;;;;;;;7.65;5.70;;;;;;;;;;5083966;28;20037;-64
2022/07/04 00:44:16;;;;;;;5.78;5.25;;;;;;;;;;5081427;28;20461;-64
2022/07/04 00:46:43;;;;;;;5.70;5.03;;;;;;;;;;5069328;28;20040;-64
2022/07/04 00:49:09;;;;;;;6.88;5.20;;;;;;;;;;5073351;28;20040;-64
2022/07/04 00:51:37;;;;;;;5.75;5.13;;;;;;;;;;5075224;28;20036;-64
2022/07/04 00:54:03;;;;;;;6.57;5.10;;;;;;;;;;5074084;28;20029;-64
2022/07/04 00:56:30;;;;;;;7.30;4.25;;;;;;;;;;5072737;28;20039;-64
2022/07/04 00:58:56;;;;;;;5.65;3.90;;;;;;;;;;5062951;28;20509;-64
2022/07/04 01:01:22;;;;;;;5.53;4.78;;;;;;;;;;5072976;28;20040;-64
2022/07/04 01:03:49;;;;;;;5.95;4.60;;;;;;;;;;5076252;28;20463;-64
2022/07/04 01:06:15;;;;;;;5.88;4.40;;;;;;;;;;5070917;28;20502;-64
2022/07/04 01:08:42;;;;;;;6.78;5.35;;;;;;;;;;5064097;28;20040;-65
2022/07/04 01:11:09;;;;;;;4.93;4.18;;;;;;;;;;5067894;28;20036;-65
2022/07/04 01:13:35;;;;;;;5.47;4.30;;;;;;;;;;5073551;28;20166;-64
2022/07/04 01:16:01;;;;;;;4.70;4.15;;;;;;;;;;5073652;28;20123;-64
2022/07/04 01:18:27;;;;;;;5.72;4.60;;;;;;;;;;5074246;28;20048;-64
2022/07/04 01:20:54;;;;;;;6.88;4.55;;;;;;;;;;5069611;28;20490;-64
2022/07/04 01:23:20;;;;;;;6.50;4.50;;;;;;;;;;5062924;28;20050;-65
2022/07/04 01:25:46;;;;;;;4.93;4.30;;;;;;;;;;5076598;28;20120;-64
2022/07/04 01:28:12;;;;;;;6.60;4.60;;;;;;;;;;5064711;28;20075;-64
2022/07/04 01:30:38;;;;;;;5.10;4.28;;;;;;;;;;5070300;28;20037;-64
2022/07/04 01:33:05;;;;;;;5.85;4.68;;;;;;;;;;5074654;28;20032;-65
2022/07/04 01:35:31;;;;;;;5.25;4.38;;;;;;;;;;5070500;28;20040;-65
2022/07/04 01:37:58;;;;;;;6.97;4.93;;;;;;;;;;5070358;28;20043;-64
2022/07/04 01:40:24;;;;;;;5.57;4.97;;;;;;;;;;5071226;28;20032;-64
2022/07/04 01:42:50;;;;;;;5.50;4.85;;;;;;;;;;5067746;28;20048;-64
2022/07/04 01:45:16;;;;;;;6.22;5.05;;;;;;;;;;5066205;28;20033;-65
2022/07/04 01:47:42;;;;;;;6.93;5.53;;;;;;;;;;5071995;28;20032;-65
2022/07/04 01:50:09;;;;;;;7.03;5.72;;;;;;;;;;5080473;28;20033;-65
2022/07/04 01:52:35;;;;;;;6.40;5.40;;;;;;;;;;5063490;28;20034;-65
2022/07/04 01:55:01;;;;;;;7.47;5.30;;;;;;;;;;5071888;28;20042;-65
2022/07/04 01:57:27;;;;;;;7.72;5.15;;;;;;;;;;5066446;28;20040;-65
2022/07/04 02:02:38;;;;;;;6.25;4.70;;;;;;;;;;5053752;28;20037;-65
2022/07/04 02:05:05;;;;;;;6.15;4.68;;;;;;;;;;5066802;28;20040;-65
2022/07/04 02:07:31;;;;;;;5.40;4.43;;;;;;;;;;5071603;28;20051;-65
2022/07/04 02:09:57;;;;;;;4.30;3.50;;;;;;;;;;5063210;28;20041;-65
2022/07/04 02:15:08;;;;;;;5.80;3.50;;;;;;;;;;5073795;28;20037;-65
2022/07/04 02:17:34;;;;;;;3.58;3.10;;;;;;;;;;5070375;28;20482;-64
2022/07/04 02:20:00;;;;;;;5.30;3.38;;;;;;;;;;5072163;28;20082;-65
2022/07/04 02:22:26;;;;;;;5.38;3.72;;;;;;;;;;5072789;28;20397;-64
2022/07/04 02:24:52;;;;;;;4.97;3.40;;;;;;;;;;5064883;28;20032;-64
2022/07/04 02:27:18;;;;;;;6.60;4.10;;;;;;;;;;5061069;28;20045;-64
2022/07/04 02:29:44;;;;;;;6.10;3.60;;;;;;;;;;5071946;28;20110;-64
2022/07/04 02:32:10;;;;;;;3.45;2.92;;;;;;;;;;5070076;28;20032;-65
2022/07/04 02:34:36;;;;;;;3.38;2.70;;;;;;;;;;5075373;28;20402;-65
2022/07/04 02:37:02;;;;;;;5.13;2.90;;;;;;;;;;5072609;28;20446;-65
2022/07/04 02:39:28;;;;;;;3.70;2.70;;;;;;;;;;5065145;28;20059;-65
2022/07/04 02:41:54;;;;;;;5.47;2.60;;;;;;;;;;5066151;28;20047;-65
2022/07/04 02:44:20;;;;;;;4.13;2.47;;;;;;;;;;5073173;28;20440;-65
2022/07/04 02:46:46;;;;;;;4.03;2.30;;;;;;;;;;5067247;28;20082;-65
2022/07/04 02:49:12;;;;;;;2.20;2.00;;;;;;;;;;5067914;28;20079;-65
2022/07/04 02:51:38;;;;;;;2.03;1.92;;;;;;;;;;5063566;28;20068;-65
2022/07/04 02:54:04;;;;;;;2.03;1.92;;;;;;;;;;5068715;28;20089;-65
2022/07/04 02:56:30;;;;;;;1.80;1.70;;;;;;;;;;5072833;28;20040;-65
2022/07/04 02:58:56;;;;;;;3.22;2.05;;;;;;;;;;5066430;28;20037;-64
2022/07/04 03:01:22;;;;;;;3.80;2.50;;;;;;;;;;5072224;28;20051;-64
2022/07/04 03:03:48;;;;;;;3.53;2.22;;;;;;;;;;5073936;28;20036;-64
2022/07/04 03:06:15;;;;;;;3.83;2.38;;;;;;;;;;5065903;28;20047;-64
2022/07/04 03:08:41;;;;;;;2.97;2.67;;;;;;;;;;5071774;28;20509;-64
2022/07/04 03:11:07;;;;;;;3.28;2.97;;;;;;;;;;5072030;28;20040;-64
2022/07/04 03:13:33;;;;;;;3.83;3.10;;;;;;;;;;5064230;28;20043;-64
2022/07/04 03:16:00;;;;;;;3.13;2.80;;;;;;;;;;5077533;28;20486;-64
2022/07/04 03:18:26;;;;;;;3.90;3.25;;;;;;;;;;5061060;28;20080;-64
2022/07/04 03:20:52;;;;;;;3.47;3.10;;;;;;;;;;5062629;28;20036;-64
2022/07/04 03:23:18;;;;;;;5.50;3.83;;;;;;;;;;5064576;28;20703;-64
2022/07/04 03:25:44;;;;;;;4.30;3.70;;;;;;;;;;5068581;28;20044;-64
2022/07/04 03:28:10;;;;;;;4.53;4.07;;;;;;;;;;5065319;28;20039;-64
2022/07/04 03:30:37;;;;;;;6.97;4.40;;;;;;;;;;5052097;28;20449;-64
2022/07/04 03:33:03;;;;;;;5.15;4.30;;;;;;;;;;5060560;28;20528;-62
2022/07/04 03:35:29;;;;;;;6.78;5.30;;;;;;;;;;5069750;28;20529;-62
2022/07/04 03:37:55;;;;;;;5.78;5.18;;;;;;;;;;5071525;28;20506;-62
2022/07/04 03:40:21;;;;;;;8.43;5.75;;;;;;;;;;5078021;28;20049;-62
2022/07/04 03:42:48;;;;;;;8.60;5.00;;;;;;;;;;5071117;28;20502;-62
2022/07/04 03:45:14;;;;;;;8.40;6.25;;;;;;;;;;5077175;28;20127;-62
2022/07/04 03:47:40;;;;;;;8.55;6.93;;;;;;;;;;5071754;28;20119;-62
2022/07/04 03:50:06;;;;;;;7.70;6.03;;;;;;;;;;5082596;28;20076;-62
2022/07/04 03:52:32;;;;;;;8.02;6.40;;;;;;;;;;5076708;28;20046;-62
2022/07/04 03:54:58;;;;;;;12.10;6.40;;;;;;;;;;5065607;28;20490;-62
2022/07/04 03:57:24;;;;;;;10.13;6.45;;;;;;;;;;5069706;28;20051;-62
2022/07/04 03:59:50;;;;;;;9.23;6.15;;;;;;;;;;5063777;28;20044;-62
2022/07/04 04:02:16;;;;;;;9.23;7.13;;;;;;;;;;5067105;28;20040;-62
2022/07/04 04:07:27;;;;;;;10.90;7.85;;;;;;;;;;5066607;28;20040;-62
2022/07/04 04:09:53;;;;;;;7.88;6.13;;;;;;;;;;5065027;28;20037;-62
2022/07/04 04:12:19;;;;;;;7.72;6.20;;;;;;;;;;5061172;28;20036;-62
2022/07/04 04:14:45;;;;;;;9.23;7.25;;;;;;;;;;5073685;28;20039;-62
2022/07/04 04:17:11;;;;;;;9.45;7.00;;;;;;;;;;5073583;28;20037;-62
2022/07/04 04:19:37;;;;;;;8.18;7.22;;;;;;;;;;5062968;28;20039;-62
2022/07/04 04:22:04;;;;;;;12.52;7.78;;;;;;;;;;5055460;28;20516;-62
2022/07/04 04:24:30;;;;;;;9.65;7.88;;;;;;;;;;5095104;28;20114;-62
2022/07/04 04:26:56;;;;;;;10.38;8.10;;;;;;;;;;5071414;28;20037;-62
2022/07/04 04:29:22;;;;;;;10.40;7.50;;;;;;;;;;5059364;28;20102;-63
2022/07/04 04:31:48;;;;;;;9.70;7.88;;;;;;;;;;5070296;28;20032;-62
2022/07/04 04:34:14;;;;;;;9.07;7.70;;;;;;;;;;5069864;28;20074;-62
2022/07/04 04:36:40;;;;;;;9.38;7.28;;;;;;;;;;5078865;28;20477;-62
2022/07/04 04:39:06;;;;;;;12.63;8.82;;;;;;;;;;5111710;22;20035;-64
2022/07/04 04:41:32;;;;;;;13.75;8.82;;;;;;;;;;5119362;28;20092;-64
2022/07/04 04:43:58;;;;;;;13.75;8.73;;;;;;;;;;5130074;28;20035;-64
2022/07/04 04:46:24;;;;;;;11.20;8.27;;;;;;;;;;5126981;27;20035;-64
2022/07/04 04:48:50;;;;;;;12.30;8.82;;;;;;;;;;5125407;27;20085;-64
2022/07/04 04:51:16;;;;;;;13.10;9.40;;;;;;;;;;5112570;28;20035;-64
2022/07/04 04:53:42;;;;;;;16.52;9.30;;;;;;;;;;5112052;28;20043;-64
2022/07/04 04:56:08;;;;;;;14.43;9.35;;;;;;;;;;5112705;28;20553;-64
2022/07/04 04:58:34;;;;;;;13.45;9.02;;;;;;;;;;5131988;28;20039;-64
2022/07/04 05:01:02;;;;;;;11.65;8.65;;;;;;;;;;5127948;27;20043;-64
2022/07/04 05:03:28;;;;;;;13.32;8.93;;;;;;;;;;5129452;28;20047;-64
2022/07/04 05:05:54;;;;;;;13.77;8.57;;;;;;;;;;5127797;27;20373;-64
2022/07/04 05:08:20;;;;;;;11.73;8.35;;;;;;;;;;5123249;28;20134;-64
2022/07/04 05:10:46;;;;;;;12.57;8.88;;;;;;;;;;5127564;27;20487;-64
2022/07/04 05:13:13;;;;;;;17.35;8.80;;;;;;;;;;5111560;28;20527;-64
2022/07/04 05:15:39;;;;;;;11.85;7.93;;;;;;;;;;5128747;28;20031;-64
2022/07/04 05:18:05;;;;;;;10.88;8.57;;;;;;;;;;5128548;28;20474;-64
2022/07/04 05:20:32;;;;;;;13.15;8.18;;;;;;;;;;5122102;28;20043;-64
2022/07/04 05:22:58;;;;;;;11.35;8.57;;;;;;;;;;5119957;27;20039;-64
2022/07/04 05:25:25;;;;;;;10.43;8.30;;;;;;;;;;5117699;28;20040;-64
2022/07/04 05:27:51;;;;;;;10.88;7.97;;;;;;;;;;5118711;27;20044;-64
2022/07/04 05:30:17;;;;;;;10.32;7.90;;;;;;;;;;5131815;27;20079;-64
2022/07/04 05:32:43;;;;;;;10.05;7.65;;;;;;;;;;5120338;27;20031;-64
2022/07/04 05:35:09;;;;;;;11.60;7.78;;;;;;;;;;5133503;27;20682;-64
2022/07/04 05:37:36;;;;;;;11.52;8.05;;;;;;;;;;5123884;27;20039;-64
2022/07/04 05:40:03;;;;;;;10.98;7.53;;;;;;;;;;5126665;27;20074;-64
2022/07/04 05:42:29;;;;;;;11.32;7.53;;;;;;;;;;5135841;27;20370;-64
2022/07/04 05:44:55;;;;;;;16.10;8.10;;;;;;;;;;5124582;27;20063;-64
2022/07/04 05:47:24;;;;;;;11.88;7.38;;;;;;;;;;5125295;27;20040;-64
2022/07/04 05:49:51;;;;;;;10.05;6.97;;;;;;;;;;5116523;27;20127;-64
2022/07/04 05:52:17;;;;;;;13.98;8.80;;;;;;;;;;5126761;27;20041;-64
2022/07/04 05:54:43;;;;;;;13.75;8.45;;;;;;;;;;5120590;27;20100;-64
2022/07/04 05:57:09;;;;;;;10.40;8.13;;;;;;;;;;5114502;27;20464;-64
2022/07/04 05:59:35;;;;;;;10.77;8.38;;;;;;;;;;5118922;27;20144;-64
2022/07/04 06:02:01;;;;;;;10.65;7.72;;;;;;;;;;5121229;27;20038;-64
2022/07/04 06:04:27;;;;;;;11.68;8.27;;;;;;;;;;5134449;27;20044;-64
2022/07/04 06:06:53;;;;;;;10.23;7.78;;;;;;;;;;5127441;27;20039;-64
2022/07/04 06:09:19;;;;;;;10.88;7.55;;;;;;;;;;5129376;27;20044;-64
2022/07/04 06:11:45;;;;;;;13.45;8.05;;;;;;;;;;5130384;27;20043;-64
2022/07/04 06:14:11;;;;;;;12.52;7.70;;;;;;;;;;5120314;27;20038;-64
2022/07/04 06:16:37;;;;;;;11.85;8.05;;;;;;;;;;5132952;27;20037;-64
2022/07/04 06:19:03;;;;;;;12.77;7.22;;;;;;;;;;5129316;27;20041;-64
2022/07/04 06:21:29;;;;;;;8.15;6.65;;;;;;;;;;5117731;27;20122;-64
2022/07/04 06:23:57;;;;;;;11.93;7.18;;;;;;;;;;5102085;27;20122;-64
2022/07/04 06:26:23;;;;;;;13.85;7.53;;;;;;;;;;5126541;27;20139;-64
2022/07/04 06:28:49;;;;;;;11.73;6.50;;;;;;;;;;5118837;27;20042;-64
2022/07/04 06:31:16;;;;;;;12.32;6.88;;;;;;;;;;5125023;27;20035;-64
2022/07/04 06:36:27;;;;;;;12.45;6.90;;;;;;;;;;5117872;27;20115;-64
2022/07/04 06:38:53;;;;;;;8.85;6.45;;;;;;;;;;5126953;27;20122;-63
2022/07/04 06:41:19;;;;;;;9.02;6.28;;;;;;;;;;5124593;27;20431;-64
2022/07/04 06:43:45;;;;;;;9.77;5.97;;;;;;;;;;5130128;27;20500;-64
2022/07/04 06:46:11;;;;;;;10.02;6.20;;;;;;;;;;5121775;27;20070;-64
2022/07/04 06:48:37;;;;;;;9.57;5.97;;;;;;;;;;5123574;27;20126;-63
2022/07/04 06:51:03;;;;;;;10.10;5.82;;;;;;;;;;5118110;27;20107;-65
2022/07/04 06:53:29;;;;;;;11.80;6.40;;;;;;;;;;5119542;27;20023;-64
2022/07/04 06:55:55;;;;;;;11.80;5.70;;;;;;;;;;5123844;27;20027;-64
2022/07/04 06:58:21;;;;;;;9.85;6.07;;;;;;;;;;5121564;27;20040;-64
2022/07/04 07:00:47;;;;;;;9.32;6.10;;;;;;;;;;5117452;27;20035;-63
2022/07/04 07:03:13;;;;;;;12.82;5.97;;;;;;;;;;5131931;27;20027;-64
2022/07/04 07:05:39;;;;;;;10.60;6.20;;;;;;;;;;5132214;27;20038;-64
2022/07/04 07:08:05;;;;;;;10.52;5.63;;;;;;;;;;5130236;27;20039;-64
2022/07/04 07:10:35;;;;;;;8.65;5.63;;;;;;;;;;5117218;27;20079;-64
2022/07/04 07:13:02;;;;;;;9.45;5.65;;;;;;;;;;5123628;27;20036;-63
2022/07/04 07:15:28;;;;;;;7.40;5.65;;;;;;;;;;5124228;27;20503;-63
2022/07/04 07:17:54;;;;;;;8.88;6.00;;;;;;;;;;5116482;27;20140;-64
2022/07/04 07:20:20;;;;;;;12.27;5.78;;;;;;;;;;5126201;27;20050;-63
2022/07/04 07:22:46;;;;;;;8.38;5.78;;;;;;;;;;5125710;27;20031;-63
2022/07/04 07:25:13;;;;;;;10.13;6.20;;;;;;;;;;5126089;27;20039;-63
2022/07/04 07:27:40;;;;;;;11.27;6.32;;;;;;;;;;5116294;27;20031;-64
2022/07/04 07:30:07;;;;;;;10.70;6.40;;;;;;;;;;5128309;27;20092;-64
2022/07/04 07:32:33;;;;;;;11.40;5.80;;;;;;;;;;5106287;27;20039;-64
2022/07/04 07:34:59;;;;;;;10.13;6.35;;;;;;;;;;5132167;27;20099;-64
2022/07/04 07:37:26;;;;;;;9.18;5.65;;;;;;;;;;5121668;27;20035;-63
2022/07/04 07:39:52;;;;;;;10.57;6.03;;;;;;;;;;5126936;27;20047;-63
2022/07/04 07:42:18;;;;;;;10.95;5.90;;;;;;;;;;5125141;27;20043;-63
2022/07/04 07:44:46;;;;;;;13.95;6.50;;;;;;;;;;5115458;27;20059;-63
2022/07/04 07:47:13;;;;;;;12.65;6.45;;;;;;;;;;5119428;27;20122;-64
2022/07/04 07:49:39;;;;;;;11.18;5.95;;;;;;;;;;5114296;27;20081;-63
2022/07/04 07:52:05;;;;;;;13.07;5.40;;;;;;;;;;5111183;27;20512;-64
2022/07/04 07:54:31;;;;;;;9.73;5.45;;;;;;;;;;5119821;27;20034;-64
2022/07/04 07:56:57;;;;;;;14.25;6.25;;;;;;;;;;5124647;27;21099;-64
2022/07/04 07:59:23;;;;;;;11.63;6.07;;;;;;;;;;5119380;27;20039;-64
2022/07/04 08:01:49;;;;;;;12.00;5.55;;;;;;;;;;5118455;27;20039;-64
2022/07/04 08:07:00;;;;;;;12.85;5.70;;;;;;;;;;5114406;27;20043;-64
2022/07/04 08:09:26;;;;;;;11.80;5.30;;;;;;;;;;5132203;27;20043;-64
2022/07/04 08:11:52;;;;;;;10.77;5.47;;;;;;;;;;5128582;27;20496;-65
2022/07/04 08:14:18;;;;;;;11.52;6.10;;;;;;;;;;5128970;27;20556;-64
2022/07/04 08:16:44;;;;;;;9.63;5.05;;;;;;;;;;5122962;27;20110;-65
2022/07/04 08:19:10;;;;;;;9.27;4.78;;;;;;;;;;5128879;27;20035;-64
2022/07/04 08:21:36;;;;;;;12.77;4.43;;;;;;;;;;5132417;27;20043;-63
2022/07/04 08:24:02;;;;;;;10.38;4.70;;;;;;;;;;5131093;27;20054;-64
2022/07/04 08:26:28;;;;;;;9.25;4.93;;;;;;;;;;5121484;27;20040;-64
2022/07/04 08:28:57;;;;;;;9.98;4.78;;;;;;;;;;5111365;28;20040;-63
2022/07/04 08:31:24;;;;;;;9.73;4.00;;;;;;;;;;5112333;28;20085;-64
2022/07/04 08:33:50;;;;;;;7.28;3.53;;;;;;;;;;5112019;28;20047;-64
2022/07/04 08:36:16;;;;;;;7.78;4.15;;;;;;;;;;5112259;28;20043;-63
2022/07/04 08:38:42;;;;;;;8.25;3.55;;;;;;;;;;5123081;28;20050;-63
2022/07/04 08:41:08;;;;;;;11.55;4.18;;;;;;;;;;5131254;28;20039;-64
2022/07/04 08:43:36;;;;;;;11.10;3.78;;;;;;;;;;5132174;28;20484;-64
2022/07/04 08:46:06;;;;;;;8.88;3.65;;;;;;;;;;5132861;27;20118;-64
2022/07/04 08:48:33;;;;;;;8.90;3.50;;;;;;;;;;5115249;28;20043;-64
2022/07/04 08:51:19;;;;;;;11.57;4.13;;;;;;;;;;5132522;28;20476;-64
2022/07/04 08:53:55;;;;;;;9.68;3.60;;;;;;;;;;5129985;27;20043;-64
2022/07/04 08:59:06;;;;;;;9.50;3.20;;;;;;;;;;5132248;28;20074;-63
2022/07/04 09:01:32;;;;;;;7.60;3.05;;;;;;;;;;5131351;27;20117;-63
2022/07/04 09:03:58;;;;;;;7.43;2.75;;;;;;;;;;5134799;27;20373;-63
2022/07/04 09:06:26;;;;;;;5.72;2.95;;;;;;;;;;5135909;27;20485;-64
2022/07/04 09:08:53;;;;;;;6.93;2.63;;;;;;;;;;5116417;27;20062;-64
2022/07/04 09:11:19;;;;;;;10.38;2.72;;;;;;;;;;5136602;27;20035;-64
2022/07/04 09:13:46;;;;;;;5.60;2.25;;;;;;;;;;5136094;27;20027;-64
2022/07/04 09:16:13;;;;;;;6.93;2.30;;;;;;;;;;5136410;27;20046;-64
2022/07/04 09:18:39;;;;;;;7.00;2.05;;;;;;;;;;5128057;27;20038;-64
2022/07/04 09:21:06;;;;;;;7.53;2.30;;;;;;;;;;5135936;27;20043;-64
2022/07/04 09:23:36;;;;;;;6.00;1.90;;;;;;;;;;5119563;27;20051;-64
2022/07/04 09:26:08;;;;;;;4.75;1.95;;;;;;;;;;5115842;28;20413;-63
2022/07/04 09:28:34;;;;;;;6.70;1.90;;;;;;;;;;5115171;28;20035;-64
2022/07/04 09:31:00;;;;;;;6.32;1.88;;;;;;;;;;5117548;27;20031;-64
2022/07/04 09:33:45;;;;;;;4.28;1.60;;;;;;;;;;5135280;27;20027;-63
2022/07/04 09:36:12;;;;;;;3.53;1.60;;;;;;;;;;5132042;27;20031;-63
2022/07/04 09:38:38;;;;;;;5.47;1.85;;;;;;;;;;5114561;28;20035;-63
2022/07/04 09:43:59;;;;;;;7.40;1.67;;;;;;;;;;5114892;28;20043;-64
2022/07/04 09:46:25;;;;;;;3.83;1.23;;;;;;;;;;5119649;27;20046;-63
2022/07/04 09:48:52;;;;;;;1.98;1.20;;;;;;;;;;5134883;27;20039;-63
2022/07/04 09:51:35;;;;;;;5.22;1.67;;;;;;;;;;5135032;27;20124;-64
2022/07/04 09:54:18;;;;;;;6.15;1.30;;;;;;;;;;5135768;27;20118;-63
2022/07/04 09:56:45;;;;;;;4.05;1.58;;;;;;;;;;5135462;27;20454;-63
2022/07/04 09:59:11;;;;;;;5.00;1.58;;;;;;;;;;5134809;27;20070;-63
2022/07/04 10:01:39;;;;;;;4.45;1.48;;;;;;;;;;5133740;27;20478;-63
2022/07/04 10:04:05;;;;;;;6.20;2.17;;;;;;;;;;5133406;27;20043;-63
2022/07/04 10:06:34;;;;;;;5.10;1.95;;;;;;;;;;5114911;28;20093;-63
2022/07/04 10:09:14;;;;;;;4.32;1.80;;;;;;;;;;5113728;28;20105;-63
2022/07/04 10:11:40;;;;;;;3.58;1.40;;;;;;;;;;5114480;28;20543;-63
2022/07/04 10:14:08;;;;;;;3.85;1.50;;;;;;;;;;5113076;28;20046;-64
2022/07/04 10:16:34;;;;;;;5.45;1.50;;;;;;;;;;5126200;27;20038;-63
2022/07/04 10:19:01;;;;;;;5.78;1.67;;;;;;;;;;5125760;27;20074;-64
2022/07/04 10:21:27;;;;;;;2.40;1.40;;;;;;;;;;5113794;28;20043;-64
2022/07/04 10:23:53;;;;;;;5.25;1.80;;;;;;;;;;5114380;28;20039;-64
2022/07/04 10:26:20;;;;;;;4.75;1.33;;;;;;;;;;5114676;28;20046;-64
2022/07/04 10:28:49;;;;;;;1.77;1.17;;;;;;;;;;5113375;28;20290;-64
2022/07/04 10:31:16;;;;;;;2.83;1.05;;;;;;;;;;5133026;27;20047;-64
2022/07/04 10:33:43;;;;;;;3.53;1.27;;;;;;;;;;5133908;27;20051;-63
2022/07/04 10:36:15;;;;;;;2.72;1.20;;;;;;;;;;5134497;27;20086;-64
2022/07/04 10:39:00;;;;;;;3.72;1.25;;;;;;;;;;5141249;22;20147;-63
2022/07/04 10:41:28;;;;;;;2.83;1.15;;;;;;;;;;5114289;28;20485;-62
2022/07/04 10:43:55;;;;;;;4.47;1.23;;;;;;;;;;5113471;28;20043;-62
2022/07/04 10:46:47;;;;;;;2.40;1.48;;;;;;;;;;5095729;28;20090;-62
2022/07/04 10:49:16;;;;;;;2.08;1.20;;;;;;;;;;5090954;28;20055;-62
2022/07/04 10:51:42;;;;;;;4.35;1.30;;;;;;;;;;5093571;28;20429;-62
2022/07/04 10:54:10;;;;;;;4.82;1.40;;;;;;;;;;5092851;28;20028;-62
2022/07/04 10:56:43;;;;;;;4.43;1.70;;;;;;;;;;5093372;28;20036;-62
2022/07/04 10:59:29;;;;;;;2.90;1.42;;;;;;;;;;5103671;28;20040;-62
2022/07/04 11:02:17;;;;;;;3.92;1.10;;;;;;;;;;5107469;28;20405;-62
2022/07/04 11:05:02;;;;;;;3.53;0.98;;;;;;;;;;5113408;27;20074;-62
2022/07/04 11:07:31;;;;;;;2.92;1.10;;;;;;;;;;5113642;28;20489;-62
2022/07/04 11:10:12;;;;;;;2.95;1.10;;;;;;;;;;5112478;28;20075;-62
2022/07/04 11:12:54;;;;;;;1.95;1.20;;;;;;;;;;5112892;28;20101;-62
2022/07/04 11:15:41;;;;;;;1.95;1.25;;;;;;;;;;5105005;28;20036;-62
2022/07/04 11:18:11;;;;;;;1.92;1.08;;;;;;;;;;5108732;28;20130;-62
2022/07/04 11:20:40;;;;;;;3.38;1.05;;;;;;;;;;5112947;28;20044;-62
2022/07/04 11:23:06;;;;;;;2.35;1.25;;;;;;;;;;5113348;28;20039;-62
2022/07/04 11:25:32;;;;;;;2.53;1.33;;;;;;;;;;5112868;28;20381;-62
2022/07/04 11:27:58;;;;;;;2.63;1.13;;;;;;;;;;5103905;28;20074;-62
2022/07/04 11:30:24;;;;;;;4.03;1.20;;;;;;;;;;5109346;28;20036;-63
2022/07/04 11:32:50;;;;;;;1.95;1.10;;;;;;;;;;5113403;28;20377;-62
2022/07/04 11:35:20;;;;;;;2.00;1.10;;;;;;;;;;5112929;28;20043;-63
2022/07/04 11:37:46;;;;;;;4.78;1.42;;;;;;;;;;5113150;28;20500;-63
2022/07/04 11:45:52;;;;;;;3.10;1.20;;;;;;;;;;5108663;28;20052;-63
2022/07/04 11:48:25;;;;;;;1.83;1.30;;;;;;;;;;5096701;28;20048;-63
2022/07/04 11:50:51;;;;;;;2.67;1.13;;;;;;;;;;5092116;28;20444;-63
2022/07/04 11:53:18;;;;;;;2.42;1.20;;;;;;;;;;5092343;28;20040;-63
2022/07/04 11:55:53;;;;;;;3.75;1.02;;;;;;;;;;5092314;28;20040;-63
2022/07/04 11:58:21;;;;;;;2.22;1.02;;;;;;;;;;5104231;28;20036;-62
2022/07/04 12:00:47;;;;;;;3.55;1.15;;;;;;;;;;5111027;28;20107;-63
2022/07/04 12:03:14;;;;;;;4.82;1.30;;;;;;;;;;5104045;28;20031;-62
2022/07/04 12:05:41;;;;;;;3.10;1.10;;;;;;;;;;5112245;28;20085;-62
2022/07/04 12:08:07;;;;;;;2.35;1.10;;;;;;;;;;5112455;28;20493;-62
2022/07/04 12:10:33;;;;;;;3.20;1.33;;;;;;;;;;5111081;28;20039;-62
2022/07/04 12:13:08;;;;;;;4.35;1.17;;;;;;;;;;5103587;28;20035;-62
2022/07/04 12:15:38;;;;;;;2.20;1.00;;;;;;;;;;5112052;28;20046;-63
2022/07/04 12:18:06;;;;;;;2.08;0.98;;;;;;;;;;5111895;28;20039;-62
2022/07/04 12:20:32;;;;;;;2.95;1.10;;;;;;;;;;5111837;28;20444;-63
2022/07/04 12:23:01;;;;;;;2.38;1.10;;;;;;;;;;5112607;28;20040;-63
2022/07/04 12:25:36;;;;;;;4.60;1.40;;;;;;;;;;5110906;28;20512;-63
2022/07/04 12:28:07;;;;;;;3.05;1.30;;;;;;;;;;5106140;28;20043;-63
2022/07/04 12:30:40;;;;;;;3.03;0.90;;;;;;;;;;5111421;28;20105;-62
2022/07/04 12:33:07;;;;;;;1.75;0.98;;;;;;;;;;5112114;28;20028;-62
2022/07/04 12:35:39;;;;;;;4.63;1.35;;;;;;;;;;5107214;28;20040;-63
2022/07/04 12:38:05;;;;;;;1.67;1.02;;;;;;;;;;5091486;28;20394;-62
2022/07/04 12:40:31;;;;;;;2.10;1.00;;;;;;;;;;5100245;28;20580;-62
2022/07/04 12:42:57;;;;;;;2.28;1.10;;;;;;;;;;5097959;28;20089;-63
2022/07/04 12:45:23;;;;;;;1.10;1.00;;;;;;;;;;5099972;28;20074;-62
2022/07/04 12:47:49;;;;;;;3.42;1.20;;;;;;;;;;5091763;28;20043;-63
2022/07/04 12:50:15;;;;;;;2.97;0.93;;;;;;;;;;5090716;28;20509;-62
2022/07/04 12:52:42;;;;;;;3.28;1.27;;;;;;;;;;5091814;28;20036;-62
2022/07/04 12:55:10;;;;;;;4.85;1.50;;;;;;;;;;5091312;28;20472;-62
2022/07/04 12:57:36;;;;;;;2.30;0.95;;;;;;;;;;5098844;28;20442;-62
2022/07/04 13:00:03;;;;;;;2.67;1.10;;;;;;;;;;5095416;28;20477;-62
2022/07/04 13:02:29;;;;;;;3.38;1.20;;;;;;;;;;5091870;28;20044;-62
2022/07/04 13:04:56;;;;;;;2.58;1.00;;;;;;;;;;5111024;28;20047;-62
2022/07/04 13:07:22;;;;;;;2.80;0.95;;;;;;;;;;5111297;28;20075;-62
2022/07/04 13:09:48;;;;;;;1.45;0.80;;;;;;;;;;5111309;28;20079;-62
2022/07/04 13:12:29;;;;;;;3.15;1.00;;;;;;;;;;5101367;28;20060;-63
2022/07/04 13:14:56;;;;;;;3.17;1.20;;;;;;;;;;5096472;28;20482;-62
2022/07/04 13:17:22;;;;;;;2.30;0.90;;;;;;;;;;5091479;28;20048;-62
2022/07/04 13:19:49;;;;;;;2.15;1.00;;;;;;;;;;5090622;28;20084;-62
2022/07/04 13:22:15;;;;;;;3.28;0.70;;;;;;;;;;5109649;28;20060;-62
2022/07/04 13:24:41;;;;;;;1.85;0.80;;;;;;;;;;5110459;28;20455;-62
2022/07/04 13:27:07;;;;;;;1.60;0.80;;;;;;;;;;5103591;28;20039;-62
2022/07/04 13:29:33;;;;;;;1.90;0.93;;;;;;;;;;5111156;28;20054;-62
2022/07/04 13:31:59;;;;;;;1.85;0.80;;;;;;;;;;5111281;28;20408;-62
2022/07/04 13:34:25;;;;;;;4.65;0.75;;;;;;;;;;5111786;28;20043;-62
2022/07/04 13:36:54;;;;;;;1.00;0.80;;;;;;;;;;5111093;28;20036;-62
2022/07/04 13:39:21;;;;;;;1.20;0.77;;;;;;;;;;5110437;28;20051;-62
2022/07/04 13:41:47;;;;;;;4.20;0.70;;;;;;;;;;5099357;28;20046;-62
2022/07/04 13:44:15;;;;;;;2.13;0.80;;;;;;;;;;5106721;28;20039;-62
2022/07/04 13:46:42;;;;;;;2.25;0.82;;;;;;;;;;5103728;28;20067;-62
2022/07/04 13:49:08;;;;;;;2.50;0.90;;;;;;;;;;5108334;28;20040;-62
2022/07/04 13:51:34;;;;;;;1.50;0.82;;;;;;;;;;5100747;28;20034;-62
2022/07/04 13:54:02;;;;;;;1.67;0.90;;;;;;;;;;5103984;28;20039;-62
2022/07/04 13:56:29;;;;;;;2.50;0.77;;;;;;;;;;5105310;28;20481;-62
2022/07/04 13:58:55;;;;;;;1.80;0.70;;;;;;;;;;5105691;28;20043;-62
2022/07/04 14:01:21;;;;;;;1.92;0.70;;;;;;;;;;5111724;27;20044;-62
2022/07/04 14:03:48;;;;;;;2.78;0.70;;;;;;;;;;5111301;27;20067;-62
2022/07/04 14:06:14;;;;;;;2.00;0.60;;;;;;;;;;5103071;28;20115;-62
2022/07/04 14:08:40;;;;;;;2.25;0.85;;;;;;;;;;5102649;28;20093;-62
2022/07/04 14:11:06;;;;;;;2.03;0.73;;;;;;;;;;5104331;28;20039;-62
2022/07/04 14:13:33;;;;;;;0.75;0.60;;;;;;;;;;5106088;28;20405;-62
2022/07/04 14:16:00;;;;;;;2.25;0.70;;;;;;;;;;5097496;28;20499;-62
2022/07/04 14:18:26;;;;;;;1.98;0.90;;;;;;;;;;5094293;28;20044;-62
2022/07/04 14:20:52;;;;;;;1.65;0.80;;;;;;;;;;5103860;28;20042;-62
2022/07/04 14:26:04;;;;;;;1.75;0.73;;;;;;;;;;5093842;28;20443;-62
2022/07/04 14:28:31;;;;;;;2.08;0.70;;;;;;;;;;5109388;28;20050;-62
2022/07/04 14:30:57;;;;;;;2.13;0.80;;;;;;;;;;5107810;28;20043;-62
2022/07/04 14:33:23;;;;;;;1.73;0.70;;;;;;;;;;5105694;28;20040;-62
2022/07/04 14:35:49;;;;;;;1.45;0.60;;;;;;;;;;5108032;28;20039;-62
2022/07/04 14:38:15;;;;;;;2.03;0.65;;;;;;;;;;5105842;27;20429;-62
2022/07/04 14:40:45;;;;;;;1.90;0.90;;;;;;;;;;5109045;28;20115;-62
2022/07/04 14:43:11;;;;;;;2.08;0.73;;;;;;;;;;5104136;28;20035;-62
2022/07/04 14:45:37;;;;;;;1.63;0.60;;;;;;;;;;5106364;28;20038;-62
2022/07/04 14:48:04;;;;;;;1.25;0.52;;;;;;;;;;5105962;28;20126;-62
2022/07/04 14:50:30;;;;;;;0.93;0.50;;;;;;;;;;5099230;28;20058;-62
2022/07/04 14:52:56;;;;;;;0.98;0.50;;;;;;;;;;5105599;28;20036;-62
2022/07/04 14:55:22;;;;;;;4.43;0.90;;;;;;;;;;5107358;28;20552;-62
2022/07/04 14:57:48;;;;;;;0.68;0.50;;;;;;;;;;5105292;28;20134;-62
2022/07/04 15:00:14;;;;;;;0.90;0.60;;;;;;;;;;5111204;28;20131;-62
2022/07/04 15:02:40;;;;;;;0.73;0.50;;;;;;;;;;5103500;28;20043;-62
2022/07/04 15:05:07;;;;;;;2.10;0.70;;;;;;;;;;5097154;28;20036;-62
2022/07/04 15:07:34;;;;;;;1.35;0.50;;;;;;;;;;5101173;28;20071;-62